Time;durP1;ratioP1;P1;durP2;ratioP2;P2;SDS_P1;SDS_P2;PMS_P1;PMS_P2;Temp;Humidity;BMP_temperature;BMP_pressure;BME280_temperature;BME280_humidity;BME280_pressure;Samples;Min_cycle;Max_cycle;Signal;HPM_P1;HPM_P2
2021/01/09 00:00:44;;;;;;;31.67;20.02;;;;;;;2.50;74.32;99147.13;5091632;28;20051;-66
2021/01/09 00:03:11;;;;;;;31.05;18.85;;;;;;;2.48;74.44;99142.03;5092814;28;20044;-66
2021/01/09 00:05:38;;;;;;;32.13;20.58;;;;;;;2.49;74.36;99145.50;5092723;28;20085;-66
2021/01/09 00:08:05;;;;;;;29.50;20.00;;;;;;;2.50;74.39;99141.91;5092037;28;20073;-67
2021/01/09 00:10:32;;;;;;;31.20;19.98;;;;;;;2.52;74.38;99137.38;5093220;28;20036;-67
2021/01/09 00:12:59;;;;;;;30.98;20.15;;;;;;;2.48;73.83;99136.81;5092728;28;20048;-67
2021/01/09 00:15:26;;;;;;;31.15;19.73;;;;;;;2.29;74.17;99128.94;5092376;28;20048;-67
2021/01/09 00:17:54;;;;;;;30.58;19.52;;;;;;;2.21;74.56;99139.22;5092630;28;20123;-66
2021/01/09 00:20:21;;;;;;;31.60;20.05;;;;;;;2.08;74.62;99134.22;5092536;28;20067;-67
2021/01/09 00:22:48;;;;;;;29.92;20.50;;;;;;;2.12;74.61;99142.56;5092451;28;20048;-67
2021/01/09 00:25:17;;;;;;;31.88;20.15;;;;;;;2.12;74.77;99129.53;5092082;28;20113;-67
2021/01/09 00:27:44;;;;;;;30.85;19.55;;;;;;;1.96;74.44;99143.91;5092425;28;20051;-67
2021/01/09 00:30:12;;;;;;;28.67;19.27;;;;;;;1.92;75.00;99139.06;5092369;28;20040;-67
2021/01/09 00:32:39;;;;;;;32.42;19.33;;;;;;;1.85;74.72;99137.94;5092276;28;20071;-67
2021/01/09 00:35:08;;;;;;;32.47;20.17;;;;;;;1.73;75.04;99131.97;5090635;28;20028;-67
2021/01/09 00:37:35;;;;;;;30.58;19.13;;;;;;;1.78;74.95;99140.22;5092313;28;20059;-67
2021/01/09 00:40:02;;;;;;;32.88;19.08;;;;;;;1.80;74.94;99133.13;5092442;28;20378;-67
2021/01/09 00:42:28;;;;;;;35.30;19.23;;;;;;;1.82;74.82;99135.56;5092451;28;20131;-67
2021/01/09 00:44:55;;;;;;;33.78;19.20;;;;;;;1.82;74.64;99136.41;5092107;28;20042;-67
2021/01/09 00:47:22;;;;;;;33.03;20.05;;;;;;;1.81;74.66;99141.75;5090800;28;20074;-67
2021/01/09 00:49:49;;;;;;;30.10;18.95;;;;;;;1.84;74.61;99144.09;5092018;28;20117;-67
2021/01/09 00:52:17;;;;;;;32.40;20.30;;;;;;;1.83;74.77;99148.47;5092109;28;20066;-67
2021/01/09 00:54:43;;;;;;;30.95;18.52;;;;;;;1.81;74.98;99144.34;5091774;28;20050;-67
2021/01/09 00:57:10;;;;;;;33.55;19.95;;;;;;;1.88;74.78;99142.91;5090905;28;20047;-67
2021/01/09 00:59:37;;;;;;;28.95;18.92;;;;;;;1.91;74.52;99146.03;5092237;28;20131;-66
2021/01/09 01:02:04;;;;;;;31.58;19.38;;;;;;;1.93;74.71;99149.38;5092009;28;20456;-66
2021/01/09 01:04:31;;;;;;;35.80;20.00;;;;;;;1.91;74.58;99146.03;5095261;28;20572;-66
2021/01/09 01:06:58;;;;;;;32.58;19.35;;;;;;;1.93;74.57;99151.16;5096183;28;20044;-67
2021/01/09 01:09:26;;;;;;;31.58;20.00;;;;;;;1.88;74.64;99153.31;5096200;28;20055;-66
2021/01/09 01:11:53;;;;;;;35.45;20.13;;;;;;;1.83;74.69;99160.69;5096167;28;20115;-67
2021/01/09 01:14:20;;;;;;;33.45;20.10;;;;;;;1.77;74.82;99161.22;5095877;28;20044;-67
2021/01/09 01:16:49;;;;;;;32.33;19.42;;;;;;;1.55;75.06;99165.59;5095982;28;20040;-66
2021/01/09 01:19:17;;;;;;;34.50;20.70;;;;;;;1.43;75.19;99162.22;5095932;28;20131;-66
2021/01/09 01:21:43;;;;;;;30.90;20.20;;;;;;;1.37;75.60;99162.72;5094820;28;20044;-66
2021/01/09 01:24:10;;;;;;;32.22;19.92;;;;;;;1.43;75.71;99167.44;5095717;28;20385;-66
2021/01/09 01:26:38;;;;;;;32.42;20.13;;;;;;;1.49;75.69;99172.13;5094640;28;20052;-66
2021/01/09 01:29:04;;;;;;;29.58;18.58;;;;;;;1.62;76.15;99178.94;5094383;28;20055;-66
2021/01/09 01:31:31;;;;;;;32.00;19.88;;;;;;;1.70;75.86;99184.34;5095796;28;20122;-66
2021/01/09 01:33:58;;;;;;;32.35;19.40;;;;;;;1.72;75.73;99178.06;5095619;28;20072;-66
2021/01/09 01:36:25;;;;;;;28.73;18.33;;;;;;;1.81;75.71;99186.88;5093956;28;20047;-66
2021/01/09 01:38:52;;;;;;;36.60;20.40;;;;;;;1.86;75.23;99176.06;5095523;28;20044;-67
2021/01/09 01:41:18;;;;;;;29.70;18.80;;;;;;;1.69;75.01;99177.47;5095494;28;20040;-67
2021/01/09 01:43:46;;;;;;;30.00;18.60;;;;;;;1.69;75.57;99182.69;5095532;28;20036;-66
2021/01/09 01:46:15;;;;;;;29.48;17.77;;;;;;;1.82;75.70;99185.94;5094918;28;20044;-66
2021/01/09 01:48:42;;;;;;;32.13;19.60;;;;;;;1.86;75.00;99176.06;5095623;28;20379;-66
2021/01/09 01:51:11;;;;;;;31.60;20.58;;;;;;;1.73;74.67;99184.09;5095239;28;20436;-66
2021/01/09 01:53:38;;;;;;;35.80;21.10;;;;;;;1.55;74.96;99183.00;5095402;28;20044;-67
2021/01/09 01:56:06;;;;;;;31.98;20.08;;;;;;;1.45;75.54;99182.94;5095000;28;20114;-66
2021/01/09 01:58:33;;;;;;;37.17;19.17;;;;;;;1.37;75.75;99185.31;5095200;28;20401;-66
2021/01/09 02:01:00;;;;;;;34.22;20.58;;;;;;;1.38;75.99;99185.19;5095172;28;20398;-65
2021/01/09 02:03:28;;;;;;;37.50;21.48;;;;;;;1.33;75.87;99179.53;5095118;28;20056;-66
2021/01/09 02:05:59;;;;;;;34.35;21.50;;;;;;;1.26;75.98;99193.19;5094832;28;20056;-67
2021/01/09 02:08:31;;;;;;;35.33;21.90;;;;;;;1.26;75.98;99194.00;5094252;28;20098;-67
2021/01/09 02:11:02;;;;;;;36.78;20.35;;;;;;;1.26;76.05;99194.00;5093618;28;20402;-67
2021/01/09 02:13:39;;;;;;;35.83;21.02;;;;;;;1.27;75.89;99195.69;5094312;28;20502;-66
2021/01/09 02:16:09;;;;;;;32.50;18.90;;;;;;;1.33;76.02;99207.38;5094421;28;20063;-66
2021/01/09 02:18:39;;;;;;;29.20;18.58;;;;;;;1.37;75.93;99201.78;5093722;28;20048;-67
2021/01/09 02:21:18;;;;;;;28.60;18.13;;;;;;;1.45;75.93;99202.00;5094859;28;20036;-67
2021/01/09 02:23:45;;;;;;;33.15;19.65;;;;;;;1.48;75.66;99200.91;5094661;28;20055;-67
2021/01/09 02:26:12;;;;;;;31.05;18.33;;;;;;;1.51;75.42;99203.28;5094284;28;20097;-67
2021/01/09 02:28:39;;;;;;;31.35;19.65;;;;;;;1.52;75.32;99206.72;5093565;28;20044;-66
2021/01/09 02:31:08;;;;;;;31.00;19.33;;;;;;;1.51;75.23;99213.72;5093202;28;20052;-67
2021/01/09 02:33:36;;;;;;;30.35;19.25;;;;;;;1.46;75.26;99211.44;5094400;28;20497;-67
2021/01/09 02:36:04;;;;;;;30.85;20.38;;;;;;;1.41;75.43;99207.56;5094058;28;20044;-67
2021/01/09 02:38:31;;;;;;;31.25;18.92;;;;;;;1.38;75.37;99206.03;5094387;28;20034;-67
2021/01/09 02:41:03;;;;;;;31.80;20.25;;;;;;;1.30;75.51;99212.81;5094397;28;20490;-67
2021/01/09 02:43:29;;;;;;;36.13;20.25;;;;;;;1.36;75.57;99214.94;5093168;28;20043;-66
2021/01/09 02:45:56;;;;;;;32.05;19.05;;;;;;;1.36;75.29;99215.75;5093866;28;20048;-66
2021/01/09 02:48:23;;;;;;;35.75;20.33;;;;;;;1.30;75.35;99215.41;5092974;28;20047;-67
2021/01/09 02:50:49;;;;;;;36.47;21.00;;;;;;;1.25;75.44;99221.00;5094196;28;20460;-66
2021/01/09 02:53:16;;;;;;;32.33;20.63;;;;;;;1.13;75.42;99224.59;5094133;28;20115;-66
2021/01/09 02:55:43;;;;;;;28.67;18.70;;;;;;;0.97;75.68;99210.19;5093641;28;20043;-66
2021/01/09 02:58:10;;;;;;;29.42;19.02;;;;;;;0.90;75.97;99216.84;5094096;28;20138;-67
2021/01/09 03:00:37;;;;;;;30.90;19.33;;;;;;;0.94;75.88;99207.03;5094025;28;20532;-66
2021/01/09 03:03:04;;;;;;;29.50;18.60;;;;;;;0.87;75.66;99211.03;5093886;28;20044;-66
2021/01/09 03:05:30;;;;;;;30.13;18.30;;;;;;;0.85;75.65;99213.75;5093543;28;20036;-66
2021/01/09 03:07:57;;;;;;;29.83;18.05;;;;;;;0.87;75.54;99208.44;5093857;28;20097;-67
2021/01/09 03:10:23;;;;;;;30.60;17.88;;;;;;;0.81;75.59;99214.13;5092603;28;20044;-67
2021/01/09 03:12:50;;;;;;;28.20;17.42;;;;;;;0.86;75.70;99212.00;5093735;28;20056;-66
2021/01/09 03:15:18;;;;;;;30.00;18.00;;;;;;;0.88;75.69;99210.91;5092143;28;20074;-66
2021/01/09 03:17:44;;;;;;;29.73;19.08;;;;;;;0.81;75.30;99207.13;5093559;28;20048;-66
2021/01/09 03:20:12;;;;;;;30.17;18.60;;;;;;;0.71;75.58;99217.44;5093802;28;20047;-66
2021/01/09 03:22:38;;;;;;;30.45;18.08;;;;;;;0.71;75.88;99216.63;5093571;28;20040;-67
2021/01/09 03:25:06;;;;;;;32.45;19.65;;;;;;;0.76;75.87;99213.66;5092809;28;20071;-66
2021/01/09 03:27:33;;;;;;;31.38;18.23;;;;;;;0.82;75.60;99215.78;5093094;28;20517;-66
2021/01/09 03:29:59;;;;;;;30.15;19.38;;;;;;;0.86;75.40;99219.81;5093363;28;20044;-67
2021/01/09 03:32:27;;;;;;;29.25;18.33;;;;;;;0.67;75.09;99218.63;5093333;28;20051;-67
2021/01/09 03:34:54;;;;;;;30.38;18.35;;;;;;;0.38;75.37;99213.09;5093086;28;20036;-67
2021/01/09 03:37:21;;;;;;;30.95;19.02;;;;;;;0.31;75.65;99213.66;5093163;28;20105;-66
2021/01/09 03:39:47;;;;;;;26.30;16.92;;;;;;;0.31;76.47;99209.28;5093451;28;20044;-66
2021/01/09 03:42:14;;;;;;;28.08;16.98;;;;;;;0.35;76.27;99212.50;5093177;28;20040;-67
2021/01/09 03:44:40;;;;;;;27.90;18.13;;;;;;;0.48;76.64;99208.81;5092805;28;20040;-67
2021/01/09 03:47:07;;;;;;;28.92;17.42;;;;;;;0.65;76.39;99215.34;5093017;28;20394;-67
2021/01/09 03:49:35;;;;;;;33.22;19.92;;;;;;;0.76;76.17;99205.84;5093089;28;20039;-66
2021/01/09 03:52:01;;;;;;;30.42;18.17;;;;;;;0.71;75.64;99206.22;5092891;28;20490;-67
2021/01/09 03:54:28;;;;;;;29.52;18.08;;;;;;;0.66;76.00;99197.94;5091424;28;20047;-67
2021/01/09 03:56:55;;;;;;;30.15;18.38;;;;;;;0.82;76.21;99194.97;5092830;28;20047;-67
2021/01/09 03:59:22;;;;;;;27.70;17.23;;;;;;;0.90;75.93;99197.78;5092847;28;20036;-67
2021/01/09 04:01:48;;;;;;;30.67;17.15;;;;;;;0.94;75.92;99209.63;5093104;28;20040;-67
2021/01/09 04:04:15;;;;;;;28.52;17.70;;;;;;;0.87;75.17;99203.25;5092492;28;20075;-67
2021/01/09 04:06:43;;;;;;;29.38;18.83;;;;;;;0.70;75.20;99207.16;5091574;28;20113;-67
2021/01/09 04:09:09;;;;;;;28.27;17.27;;;;;;;0.61;75.50;99216.53;5091472;28;20047;-67
2021/01/09 04:11:36;;;;;;;27.25;18.33;;;;;;;0.64;75.81;99220.63;5092680;28;20036;-67
2021/01/09 04:14:03;;;;;;;30.42;18.33;;;;;;;0.60;76.02;99216.63;5092450;28;20056;-67
2021/01/09 04:16:30;;;;;;;30.90;18.77;;;;;;;0.73;76.22;99227.72;5092284;28;20493;-67
2021/01/09 04:18:56;;;;;;;29.77;17.92;;;;;;;0.77;76.04;99216.13;5092564;28;20097;-67
2021/01/09 04:21:23;;;;;;;28.00;17.15;;;;;;;0.78;75.77;99222.19;5091181;28;20448;-67
2021/01/09 04:23:50;;;;;;;26.25;16.30;;;;;;;0.75;75.78;99212.84;5092496;28;20048;-67
2021/01/09 04:26:17;;;;;;;28.65;17.48;;;;;;;0.88;75.52;99218.72;5092160;28;20048;-67
2021/01/09 04:28:44;;;;;;;30.23;18.20;;;;;;;0.91;75.23;99225.47;5092377;28;20044;-67
2021/01/09 04:31:13;;;;;;;26.02;17.35;;;;;;;0.94;75.61;99231.28;5092590;28;20493;-67
2021/01/09 04:33:40;;;;;;;27.10;16.08;;;;;;;0.99;75.03;99236.09;5091446;28;20071;-67
2021/01/09 04:36:07;;;;;;;26.75;16.55;;;;;;;1.02;75.15;99235.03;5090983;28;20411;-67
2021/01/09 04:38:34;;;;;;;25.65;15.85;;;;;;;1.04;75.14;99238.34;5092132;28;20044;-67
2021/01/09 04:41:02;;;;;;;24.17;15.63;;;;;;;1.11;75.24;99231.72;5092216;28;20067;-67
2021/01/09 04:43:29;;;;;;;26.20;16.95;;;;;;;1.14;74.98;99234.91;5092212;28;20413;-67
2021/01/09 04:45:56;;;;;;;26.23;17.23;;;;;;;1.17;74.52;99237.25;5090701;28;20082;-67
2021/01/09 04:48:24;;;;;;;26.58;17.60;;;;;;;1.02;74.57;99240.22;5092200;28;20089;-67
2021/01/09 04:50:51;;;;;;;27.02;17.42;;;;;;;1.02;74.77;99241.09;5092425;28;20044;-67
2021/01/09 04:53:19;;;;;;;25.50;16.40;;;;;;;1.13;75.09;99245.41;5092165;28;20040;-67
2021/01/09 04:55:46;;;;;;;27.83;18.42;;;;;;;1.21;74.85;99246.47;5091734;28;20040;-67
2021/01/09 04:58:13;;;;;;;23.80;15.60;;;;;;;1.23;74.49;99246.34;5092408;28;20044;-68
2021/01/09 05:00:40;;;;;;;27.58;16.85;;;;;;;1.23;74.18;99254.16;5092347;28;20508;-67
2021/01/09 05:03:08;;;;;;;24.67;16.88;;;;;;;1.29;74.21;99253.66;5092286;28;20044;-67
2021/01/09 05:05:35;;;;;;;23.73;15.20;;;;;;;1.31;74.03;99249.19;5092110;28;20037;-67
2021/01/09 05:08:02;;;;;;;28.45;17.45;;;;;;;1.36;73.93;99254.84;5090819;28;20059;-67
2021/01/09 05:10:34;;;;;;;26.83;17.08;;;;;;;1.24;73.36;99256.66;5092075;28;20501;-67
2021/01/09 05:13:02;;;;;;;26.08;16.40;;;;;;;0.98;73.67;99260.50;5090940;28;20063;-67
2021/01/09 05:15:35;;;;;;;26.15;17.02;;;;;;;0.85;74.23;99263.19;5091712;28;20047;-67
2021/01/09 05:18:02;;;;;;;27.90;16.27;;;;;;;0.76;74.62;99265.72;5091945;28;20044;-68
2021/01/09 05:20:29;;;;;;;22.38;15.15;;;;;;;0.78;74.95;99271.63;5091965;28;20067;-68
2021/01/09 05:22:56;;;;;;;24.33;15.82;;;;;;;0.91;75.25;99260.13;5091994;28;20094;-68
2021/01/09 05:25:24;;;;;;;26.23;16.08;;;;;;;1.09;75.05;99273.47;5091769;28;20047;-67
2021/01/09 05:27:53;;;;;;;22.17;14.57;;;;;;;1.13;74.58;99272.28;5091989;28;20043;-67
2021/01/09 05:30:21;;;;;;;25.23;15.75;;;;;;;1.07;74.32;99267.56;5091945;28;20040;-67
2021/01/09 05:32:48;;;;;;;22.70;14.75;;;;;;;0.90;74.06;99263.69;5091805;28;20374;-67
2021/01/09 05:35:16;;;;;;;34.92;16.23;;;;;;;0.58;74.45;99268.78;5091429;28;20493;-67
2021/01/09 05:37:47;;;;;;;24.65;15.95;;;;;;;0.51;75.00;99266.78;5091872;28;20055;-67
2021/01/09 05:40:15;;;;;;;27.30;16.38;;;;;;;0.45;75.12;99270.69;5090505;28;20068;-67
2021/01/09 05:42:42;;;;;;;25.90;16.85;;;;;;;0.52;75.45;99264.03;5090423;28;20040;-67
2021/01/09 05:45:11;;;;;;;29.25;18.52;;;;;;;0.57;75.34;99263.69;5090111;28;20047;-68
2021/01/09 05:47:39;;;;;;;28.90;18.73;;;;;;;0.55;75.46;99265.59;5091733;28;20043;-68
2021/01/09 05:50:09;;;;;;;27.13;16.88;;;;;;;0.55;75.60;99270.78;5094107;28;20048;-67
2021/01/09 05:52:38;;;;;;;28.55;18.60;;;;;;;0.57;75.56;99267.13;5095456;28;20043;-67
2021/01/09 05:55:07;;;;;;;27.10;17.67;;;;;;;0.56;75.89;99268.06;5095196;28;20048;-67
2021/01/09 05:57:35;;;;;;;26.55;17.42;;;;;;;0.60;75.97;99268.66;5095186;28;20048;-67
2021/01/09 06:00:06;;;;;;;29.60;18.65;;;;;;;0.58;75.79;99267.97;5094114;28;20044;-67
2021/01/09 06:02:48;;;;;;;33.15;18.63;;;;;;;0.59;75.89;99265.22;5095235;28;20474;-68
2021/01/09 06:05:21;;;;;;;31.38;17.98;;;;;;;0.56;76.01;99265.47;5094966;28;20040;-68
2021/01/09 06:07:50;;;;;;;30.05;17.42;;;;;;;0.59;76.15;99260.03;5095102;28;20696;-68
2021/01/09 06:10:20;;;;;;;29.00;17.88;;;;;;;0.70;76.25;99267.84;5094947;28;20044;-68
2021/01/09 06:12:59;;;;;;;28.83;17.30;;;;;;;0.78;75.98;99263.81;5094996;28;20044;-67
2021/01/09 06:15:29;;;;;;;28.67;17.52;;;;;;;0.78;75.78;99269.03;5094673;28;20082;-67
2021/01/09 06:17:56;;;;;;;27.73;17.50;;;;;;;0.83;76.01;99266.88;5094903;28;20047;-67
2021/01/09 06:20:25;;;;;;;27.20;17.65;;;;;;;0.91;76.15;99267.94;5094847;28;20072;-68
2021/01/09 06:22:53;;;;;;;27.63;18.10;;;;;;;0.97;75.17;99264.84;5094866;28;20055;-67
2021/01/09 06:25:20;;;;;;;28.02;16.75;;;;;;;0.81;75.27;99277.41;5094267;28;20044;-68
2021/01/09 06:27:52;;;;;;;29.27;16.77;;;;;;;0.72;75.84;99270.31;5094617;28;20421;-68
2021/01/09 06:30:25;;;;;;;25.95;16.55;;;;;;;0.81;76.00;99272.19;5094649;28;20043;-68
2021/01/09 06:32:55;;;;;;;26.20;16.05;;;;;;;0.83;75.78;99269.50;5093321;28;20051;-68
2021/01/09 06:35:22;;;;;;;33.15;17.80;;;;;;;0.81;75.95;99268.78;5094046;28;20047;-68
2021/01/09 06:37:50;;;;;;;28.08;17.08;;;;;;;0.72;75.64;99278.13;5094343;28;20051;-67
2021/01/09 06:40:17;;;;;;;28.33;17.30;;;;;;;0.78;76.10;99271.63;5094274;28;20046;-68
2021/01/09 06:42:47;;;;;;;30.42;18.08;;;;;;;0.86;75.77;99279.69;5094413;28;20412;-67
2021/01/09 06:45:15;;;;;;;29.90;18.00;;;;;;;0.88;76.13;99278.59;5094093;28;20042;-67
2021/01/09 06:47:56;;;;;;;27.98;17.98;;;;;;;0.93;75.67;99275.63;5093086;28;20048;-67
2021/01/09 06:50:36;;;;;;;28.00;18.40;;;;;;;0.82;75.54;99276.47;5094126;28;20055;-68
2021/01/09 06:53:04;;;;;;;30.02;17.50;;;;;;;0.81;75.80;99287.81;5094361;28;20047;-68
2021/01/09 06:55:54;;;;;;;28.00;17.33;;;;;;;0.85;76.14;99283.19;5093613;28;20501;-67
2021/01/09 06:58:26;;;;;;;26.77;16.38;;;;;;;1.01;76.16;99286.25;5094035;28;20047;-68
2021/01/09 07:00:53;;;;;;;27.63;16.65;;;;;;;1.15;75.76;99290.41;5094069;28;20055;-68
2021/01/09 07:03:21;;;;;;;28.73;17.80;;;;;;;1.12;75.25;99293.25;5093907;28;20411;-69
2021/01/09 07:05:50;;;;;;;26.88;16.85;;;;;;;1.08;75.40;99291.84;5093680;28;20074;-67
2021/01/09 07:08:22;;;;;;;29.95;17.38;;;;;;;1.07;75.56;99295.41;5093871;28;20048;-68
2021/01/09 07:10:51;;;;;;;26.33;16.00;;;;;;;1.16;75.86;99295.50;5093876;28;20126;-68
2021/01/09 07:13:21;;;;;;;24.85;16.10;;;;;;;1.31;75.65;99301.28;5093781;28;20058;-68
2021/01/09 07:16:04;;;;;;;26.60;16.65;;;;;;;1.40;75.17;99300.53;5093250;28;20048;-68
2021/01/09 07:18:34;;;;;;;22.42;15.23;;;;;;;1.36;74.73;99306.94;5093928;28;20562;-67
2021/01/09 07:21:03;;;;;;;24.95;15.57;;;;;;;1.35;74.79;99309.69;5093705;28;20048;-68
2021/01/09 07:23:33;;;;;;;23.85;14.38;;;;;;;1.24;74.77;99300.09;5093764;28;20044;-67
2021/01/09 07:26:02;;;;;;;24.58;15.70;;;;;;;1.24;74.77;99311.34;5093164;28;20038;-67
2021/01/09 07:28:33;;;;;;;24.70;15.70;;;;;;;1.20;74.77;99319.50;5093580;28;20397;-67
2021/01/09 07:31:06;;;;;;;26.38;16.08;;;;;;;1.08;74.81;99321.31;5093549;28;20451;-67
2021/01/09 07:33:34;;;;;;;26.38;16.30;;;;;;;1.11;74.87;99318.47;5093675;28;20519;-68
2021/01/09 07:36:01;;;;;;;27.65;16.45;;;;;;;1.14;75.00;99331.25;5092786;28;20043;-68
2021/01/09 07:38:28;;;;;;;23.48;15.52;;;;;;;1.23;75.16;99325.31;5093195;28;20044;-68
2021/01/09 07:40:58;;;;;;;26.73;17.08;;;;;;;1.23;74.78;99329.69;5093338;28;20054;-68
2021/01/09 07:43:39;;;;;;;26.15;15.82;;;;;;;1.32;74.82;99343.78;5093325;28;20055;-68
2021/01/09 07:46:24;;;;;;;27.42;16.17;;;;;;;1.34;74.68;99345.28;5092885;28;20094;-67
2021/01/09 07:48:51;;;;;;;28.92;16.70;;;;;;;1.33;74.51;99341.03;5093056;28;20505;-66
2021/01/09 07:51:19;;;;;;;25.92;16.27;;;;;;;1.40;74.62;99347.44;5092927;28;20047;-68
2021/01/09 07:53:47;;;;;;;25.08;15.80;;;;;;;1.38;74.61;99346.72;5093103;28;20044;-67
2021/01/09 07:56:36;;;;;;;23.20;15.63;;;;;;;1.36;74.72;99347.78;5092870;28;20055;-66
2021/01/09 07:59:03;;;;;;;25.38;16.38;;;;;;;1.32;74.68;99347.19;5092949;28;20040;-66
2021/01/09 08:01:30;;;;;;;24.90;16.00;;;;;;;1.36;74.77;99346.00;5093095;28;20047;-66
2021/01/09 08:03:58;;;;;;;22.98;15.45;;;;;;;1.29;74.67;99350.03;5093031;28;20133;-66
2021/01/09 08:06:25;;;;;;;24.90;15.75;;;;;;;1.35;74.78;99353.97;5092562;28;20040;-66
2021/01/09 08:08:51;;;;;;;26.73;16.27;;;;;;;1.42;74.81;99353.34;5092929;28;20043;-66
2021/01/09 08:11:18;;;;;;;24.77;14.73;;;;;;;1.49;74.58;99357.13;5091328;28;20051;-66
2021/01/09 08:13:46;;;;;;;26.77;16.48;;;;;;;1.62;74.47;99361.34;5091211;28;20051;-68
2021/01/09 08:16:12;;;;;;;34.53;20.92;;;;;;;1.54;73.53;99369.78;5090903;28;20040;-67
2021/01/09 08:18:39;;;;;;;26.98;15.63;;;;;;;1.40;73.17;99373.47;5092720;28;20050;-67
2021/01/09 08:21:06;;;;;;;23.65;16.33;;;;;;;1.42;73.54;99368.13;5091233;28;20083;-66
2021/01/09 08:23:32;;;;;;;21.73;14.73;;;;;;;1.45;73.40;99373.13;5092585;28;20131;-66
2021/01/09 08:26:10;;;;;;;22.13;15.07;;;;;;;1.53;73.04;99372.53;5092058;28;20046;-66
2021/01/09 08:28:38;;;;;;;24.92;14.73;;;;;;;1.46;72.89;99383.41;5092507;28;20048;-66
2021/01/09 08:31:08;;;;;;;22.73;15.07;;;;;;;1.52;73.22;99382.13;5092379;28;20040;-66
2021/01/09 08:33:35;;;;;;;24.08;15.20;;;;;;;1.52;72.54;99384.72;5092553;28;20414;-66
2021/01/09 08:36:04;;;;;;;21.67;14.52;;;;;;;1.49;72.68;99385.78;5092095;28;20083;-66
2021/01/09 08:38:32;;;;;;;22.33;14.23;;;;;;;1.55;72.75;99394.06;5092325;28;20094;-66
2021/01/09 08:41:03;;;;;;;23.58;14.93;;;;;;;1.59;72.76;99391.13;5091001;28;20052;-66
2021/01/09 08:43:30;;;;;;;24.45;15.50;;;;;;;1.64;72.82;99388.97;5092762;28;20048;-66
2021/01/09 08:45:56;;;;;;;23.17;15.43;;;;;;;1.67;72.92;99400.91;5091958;28;20048;-66
2021/01/09 08:48:26;;;;;;;25.33;15.95;;;;;;;1.73;73.25;99393.44;5092927;28;20192;-66
2021/01/09 08:51:02;;;;;;;26.35;16.38;;;;;;;1.82;73.25;99389.28;5092770;28;20052;-66
2021/01/09 08:53:36;;;;;;;23.42;15.50;;;;;;;1.80;72.94;99388.59;5092506;28;20036;-66
2021/01/09 08:56:05;;;;;;;26.85;16.98;;;;;;;1.80;72.74;99390.38;5091813;28;20048;-66
2021/01/09 08:58:34;;;;;;;24.95;16.50;;;;;;;1.79;72.71;99399.94;5091315;28;20044;-66
2021/01/09 09:01:05;;;;;;;26.70;17.65;;;;;;;1.73;72.87;99398.66;5092122;28;20047;-66
2021/01/09 09:03:36;;;;;;;26.45;16.98;;;;;;;1.74;73.13;99405.50;5092380;28;20069;-66
2021/01/09 09:06:08;;;;;;;25.15;16.17;;;;;;;1.69;72.74;99410.28;5091796;28;20044;-66
2021/01/09 09:08:36;;;;;;;24.52;15.88;;;;;;;1.80;72.91;99400.78;5092051;28;20147;-66
2021/01/09 09:11:04;;;;;;;22.08;14.45;;;;;;;1.84;72.84;99399.59;5092319;28;20113;-66
2021/01/09 09:13:31;;;;;;;32.67;19.65;;;;;;;1.95;72.65;99395.16;5092163;28;20049;-66
2021/01/09 09:15:58;;;;;;;26.00;14.95;;;;;;;1.99;72.12;99393.94;5091863;28;20047;-66
2021/01/09 09:18:33;;;;;;;22.80;15.55;;;;;;;2.02;72.31;99395.50;5092509;28;20101;-66
2021/01/09 09:21:00;;;;;;;26.58;16.38;;;;;;;2.06;71.68;99402.13;5092344;28;20109;-67
2021/01/09 09:23:27;;;;;;;20.38;14.18;;;;;;;1.97;71.20;99395.88;5092019;28;20044;-67
2021/01/09 09:26:08;;;;;;;21.60;13.82;;;;;;;2.14;71.73;99398.91;5095505;28;20043;-67
2021/01/09 09:28:49;;;;;;;22.30;14.05;;;;;;;2.06;70.72;99399.50;5094745;28;20470;-66
2021/01/09 09:31:27;;;;;;;21.17;13.50;;;;;;;2.02;70.60;99394.66;5096291;28;20529;-66
2021/01/09 09:34:06;;;;;;;21.70;13.93;;;;;;;1.94;70.53;99401.31;5097129;28;20456;-66
2021/01/09 09:36:36;;;;;;;20.83;13.27;;;;;;;1.89;70.49;99402.66;5096708;28;20063;-66
2021/01/09 09:39:14;;;;;;;21.08;12.95;;;;;;;1.79;70.85;99396.50;5096944;28;20071;-66
2021/01/09 09:41:51;;;;;;;22.65;12.70;;;;;;;1.78;70.81;99408.72;5095926;28;20557;-66
2021/01/09 09:44:18;;;;;;;20.60;13.23;;;;;;;1.75;70.92;99411.56;5094756;28;20044;-66
2021/01/09 09:46:48;;;;;;;19.52;13.20;;;;;;;1.72;71.35;99407.44;5095731;28;20040;-66
2021/01/09 09:49:16;;;;;;;19.27;12.48;;;;;;;1.82;70.89;99404.91;5095886;28;20052;-66
2021/01/09 09:51:43;;;;;;;22.08;13.32;;;;;;;1.75;70.63;99419.38;5095618;28;20048;-66
2021/01/09 09:54:10;;;;;;;20.35;12.30;;;;;;;1.68;70.86;99416.44;5095315;28;20040;-66
2021/01/09 09:56:39;;;;;;;16.88;11.60;;;;;;;1.80;70.63;99422.47;5095551;28;20141;-66
2021/01/09 09:59:07;;;;;;;18.38;12.50;;;;;;;1.71;70.46;99423.19;5095554;28;20059;-66
2021/01/09 10:01:35;;;;;;;22.25;13.15;;;;;;;1.69;70.94;99423.31;5095598;28;20052;-66
2021/01/09 10:04:03;;;;;;;21.42;13.20;;;;;;;1.82;70.94;99424.94;5095179;28;20043;-65
2021/01/09 10:06:38;;;;;;;20.80;12.93;;;;;;;1.85;70.51;99430.75;5093595;28;20044;-65
2021/01/09 10:09:12;;;;;;;25.33;15.43;;;;;;;1.98;70.62;99428.00;5095160;28;20044;-65
2021/01/09 10:11:40;;;;;;;17.75;11.50;;;;;;;1.78;70.57;99423.53;5095155;28;20051;-65
2021/01/09 10:14:20;;;;;;;19.30;12.23;;;;;;;1.84;70.62;99434.31;5094707;28;20482;-66
2021/01/09 10:16:47;;;;;;;17.25;11.50;;;;;;;1.95;70.65;99434.25;5094892;28;20044;-66
2021/01/09 10:19:16;;;;;;;20.33;13.50;;;;;;;2.20;70.62;99429.69;5094923;28;20040;-66
2021/01/09 10:21:44;;;;;;;21.52;12.57;;;;;;;2.34;70.17;99436.41;5095196;28;20046;-66
2021/01/09 10:24:11;;;;;;;19.23;11.75;;;;;;;2.46;69.97;99440.63;5094688;28;20036;-66
2021/01/09 10:26:38;;;;;;;19.42;12.90;;;;;;;2.54;69.76;99435.63;5093665;28;20565;-66
2021/01/09 10:29:05;;;;;;;16.63;10.75;;;;;;;2.57;69.01;99444.97;5094730;28;20044;-66
2021/01/09 10:31:34;;;;;;;16.63;11.32;;;;;;;2.44;69.11;99443.34;5094821;28;20547;-66
2021/01/09 10:34:02;;;;;;;16.33;11.98;;;;;;;2.48;69.03;99438.72;5093355;28;20055;-66
2021/01/09 10:36:30;;;;;;;17.80;11.30;;;;;;;2.48;68.96;99441.31;5093823;28;20062;-66
2021/01/09 10:38:59;;;;;;;18.70;11.30;;;;;;;2.51;68.86;99435.88;5094575;28;20054;-65
2021/01/09 10:41:26;;;;;;;16.63;10.82;;;;;;;2.44;68.25;99435.53;5094582;28;20040;-65
2021/01/09 10:44:13;;;;;;;16.00;10.18;;;;;;;2.51;68.69;99433.25;5093113;28;20043;-65
2021/01/09 10:46:39;;;;;;;15.05;10.15;;;;;;;2.50;68.24;99430.78;5094505;28;20047;-66
2021/01/09 10:49:06;;;;;;;14.93;10.55;;;;;;;2.57;68.56;99422.31;5093164;28;20044;-66
2021/01/09 10:51:34;;;;;;;23.17;12.60;;;;;;;2.68;68.27;99426.63;5094347;28;20047;-66
2021/01/09 10:54:02;;;;;;;13.50;10.32;;;;;;;2.85;67.66;99425.22;5094420;28;20043;-68
2021/01/09 10:56:29;;;;;;;14.13;9.00;;;;;;;2.83;66.26;99432.38;5094071;28;20044;-66
2021/01/09 10:58:55;;;;;;;16.65;10.18;;;;;;;2.75;66.72;99419.97;5094272;28;20048;-66
2021/01/09 11:01:23;;;;;;;12.15;9.10;;;;;;;2.80;66.79;99428.22;5094454;28;20402;-66
2021/01/09 11:03:50;;;;;;;15.63;9.43;;;;;;;2.80;66.07;99425.63;5094610;28;20070;-66
2021/01/09 11:06:21;;;;;;;13.20;9.00;;;;;;;2.72;65.56;99431.47;5092853;28;20466;-66
2021/01/09 11:08:48;;;;;;;15.77;9.43;;;;;;;2.63;65.61;99421.81;5094205;28;20122;-66
2021/01/09 11:11:16;;;;;;;14.15;9.35;;;;;;;2.67;66.47;99420.59;5094543;28;20127;-66
2021/01/09 11:13:43;;;;;;;13.90;9.57;;;;;;;2.45;66.49;99418.94;5094366;28;20498;-66
2021/01/09 11:16:09;;;;;;;15.05;9.75;;;;;;;2.46;66.69;99419.75;5093751;28;20048;-66
2021/01/09 11:18:36;;;;;;;16.00;9.80;;;;;;;2.41;66.90;99417.53;5093731;28;20405;-66
2021/01/09 11:21:03;;;;;;;14.15;9.95;;;;;;;2.46;67.11;99415.38;5093759;28;20044;-66
2021/01/09 11:23:30;;;;;;;14.55;10.20;;;;;;;2.38;67.25;99419.56;5094068;28;20418;-66
2021/01/09 11:25:57;;;;;;;15.68;10.23;;;;;;;2.20;67.44;99422.72;5093485;28;20131;-66
2021/01/09 11:28:24;;;;;;;13.60;9.68;;;;;;;2.07;67.47;99418.59;5093739;28;20044;-65
2021/01/09 11:30:51;;;;;;;15.90;10.35;;;;;;;2.01;67.68;99419.94;5093633;28;20047;-66
2021/01/09 11:33:18;;;;;;;16.00;10.48;;;;;;;2.14;68.23;99420.59;5093573;28;20044;-66